VOCB/CJB METAR and TAF weather

Enter ICAO airport designator
Station Type Date Time Source
VOCB METAR 2019/04/24 16:30 UTC NOAA

VOCB 241630Z 24005KT 5000 HZ FEW015 29/23 Q1012 NOSIG


Station Type Date Time Source
VOCB Decoded METAR 2019/04/24 16:30 UTC NOAA

Coimbatore / Peelamedu, India (VOCB) 11-02N 077-03E 399M
Apr 24, 2019 - 12:30 PM EDT / 2019.04.24 1630 UTC
Wind: from the WSW (240 degrees) at 6 MPH (5 KT):0
Visibility: 3 mile(s):0
Sky conditions: mostly clear
Weather: haze
Temperature: 84 F (29 C)
Dew Point: 73 F (23 C)
Relative Humidity: 70%
Pressure (altimeter): 29.88 in. Hg (1012 hPa)
ob: VOCB 241630Z 24005KT 5000 HZ FEW015 29/23 Q1012 NOSIG
cycle: 16

Station Type Date Time Source
VOCB TAF 2019/04/24 12:00 UTC NOAA

TAF VOCB 241100Z 2412/2518 16010KT 6000 SCT015 SCT080
TEMPO 2412/2418 SCT015 FEW020TCU/CB SCT080
BECMG 2418/2419 VRB03KT 4000 BR
BECMG 2506/2507 15010KT 6000
TEMPO 2512/2518 SCT015 FEW020TCU/CB BKN080

Example: see airport list